Thursday, January 17, 2019, 8:21 PM EST
Back to Local

KWRI, Mcguire Air Force Base

Location: Trenton, NJ, United States Lat: 40.017
Local Time: 8:21 PM EST ( 1:21 GMT) Lon: -74.6
Time Zone: US/Eastern Elev: 134 ft

Show me the last for .
Show Coded

Time T Td Feel RH Dir Speed Gust Alt SLP Vis Weather Sky Remarks
2019-01-17 19:56 27 19 20 72 60° 6 - 30.25 30.25 10 OVC110 None
2019-01-17 18:56 27 19 23 70 40° 3 - 30.27 30.27 10 OVC110 6-hr Min Temp (7pm): 26.8°F
6-hr Max Temp (7pm): 33.6°F
2019-01-17 17:56 27 18 23 66 40° 3 - 30.27 30.27 10 BKN120 None
2019-01-17 16:56 30 17 25 57 110° 5 - 30.27 30.27 10 OVC130 None
2019-01-17 15:56 31 15 22 50 110° 10 - 30.28 30.28 10 BKN140 None
2019-01-17 14:56 33 8 26 34 80° 8 - 30.27 30.27 10 BKN130 None
2019-01-17 13:56 33 3 29 27 180° 5 - 30.31 30.31 10 OVC150 None
2019-01-17 12:56 33 4 28 29 10° 5 - 30.32 30.32 10 BKN160 6-hr Min Temp (1pm): 22.1°F
6-hr Max Temp (1pm): 32.7°F
2019-01-17 11:56 32 4 27 29 10° 5 - 30.36 30.36 10 BKN160 BKN180 None
2019-01-17 10:56 31 6 25 33 10° 6 - 30.39 30.39 10 CLR None
2019-01-17 09:56 29 4 22 33 350° 7 - 30.38 30.38 10 FEW160 None
2019-01-17 08:56 27 5 18 37 360° 10 - 30.37 30.37 10 FEW160 None
2019-01-17 07:56 24 10 16 53 360° 7 - 30.36 30.36 10 SCT160 None
2019-01-17 06:56 23 13 16 64 30° 6 - 30.34 30.34 10 CLR 6-hr Min Temp (7am): 23.0°F
6-hr Max Temp (7am): 32.2°F
2019-01-17 05:56 26 14 17 59 10° 9 - 30.32 30.32 10 CLR None
2019-01-17 04:56 27 16 18 61 20° 9 - 30.30 30.30 10 CLR None
2019-01-17 03:56 29 17 20 59 30° 10 - 30.28 30.28 10 CLR None
2019-01-17 02:56 29 16 24 57 340° 5 - 30.28 30.28 10 CLR None
2019-01-17 01:56 30 16 24 55 330° 6 - 30.26 30.26 10 CLR None
2019-01-17 00:56 32 22 27 67 290° 5 - 30.23 30.23 10 CLR 6-hr Min Temp (1am): 31.8°F
6-hr Max Temp (1am): 36.1°F
2019-01-16 23:56 35 23 31 60 280° 5 - 30.22 30.22 10 OVC048 24-hr Min Temp (12am): 20.1°F
24-hr Max Temp (12am): 37.6°F
2019-01-16 22:56 35 22 29 60 280° 6 - 30.20 30.20 10 OVC048 None
2019-01-16 21:56 35 22 29 60 280° 6 - 30.18 30.18 10 OVC055 None
2019-01-16 20:56 35 22 30 59 280° 6 - 30.16 30.16 10 FEW055 None

Support USWX by starting your Amazon purchase here.